Freeburg, Missouri
Current Conditions -  °F | °C
As of 3:53 AM on Sunday 21 Dec 2014 (Local Time) from KVIH Reporting Station
Overcast Overcast  
Wind Chill: 33°   Ceiling: 2200
Heat Index: 39°   Visibility: 10mi
Dew Point: 34°   Wind: 8mph
Humidity: 82%   Direction: 170°S
Pressure: 30.13"   Gusts: NA
Location:  38.32°N, 91.92°W
Report Text: KVIH 210953Z AUTO 17007KT 10SM OVC022 04/01 A3013 RMK AO2 SLP208 T00390011
Loading
Personal Weather Stations






























Interactive Weather Map New forecast layout! Learn more

10-Day Weather Forecast

Advertisements
Track Severe Weather on mobile